Time;durP1;ratioP1;P1;durP2;ratioP2;P2;SDS_P1;SDS_P2;PMS_P1;PMS_P2;Temp;Humidity;BMP_temperature;BMP_pressure;BME280_temperature;BME280_humidity;BME280_pressure;Samples;Min_cycle;Max_cycle;Signal;HPM_P1;HPM_P2
2022/04/05 00:00:47;;;;;;;;;;;5.40;97.40;;;;;;5051703;28;19920;-81
2022/04/05 00:03:13;;;;;;;;;;;5.40;97.60;;;;;;5033170;28;19967;-81
2022/04/05 00:05:38;;;;;;;;;;;5.40;97.60;;;;;;5021587;28;19917;-81
2022/04/05 00:08:04;;;;;;;;;;;5.40;97.80;;;;;;5048634;28;19924;-81
2022/04/05 00:10:29;;;;;;;;;;;5.40;97.90;;;;;;5031003;28;19916;-81
2022/04/05 00:12:55;;;;;;;;;;;5.40;97.90;;;;;;5053715;28;19913;-81
2022/04/05 00:15:21;;;;;;;;;;;5.40;98.10;;;;;;5061615;28;19917;-81
2022/04/05 00:17:46;;;;;;;;;;;5.40;98.20;;;;;;5027339;28;19929;-81
2022/04/05 00:20:12;;;;;;;;;;;5.40;98.20;;;;;;5024800;28;20411;-81
2022/04/05 00:22:38;;;;;;;;;;;5.40;98.40;;;;;;5042877;28;20019;-81
2022/04/05 00:25:03;;;;;;;;;;;5.40;98.60;;;;;;5049945;28;19956;-81
2022/04/05 00:27:29;;;;;;;;;;;5.40;98.60;;;;;;5044498;28;20400;-80
2022/04/05 00:29:55;;;;;;;;;;;5.40;99.00;;;;;;5031884;28;19916;-81
2022/04/05 00:32:20;;;;;;;;;;;5.40;99.20;;;;;;5028392;28;19921;-81
2022/04/05 00:34:49;;;;;;;;;;;5.40;99.20;;;;;;5044733;28;19921;-81
2022/04/05 00:37:14;;;;;;;;;;;5.40;99.50;;;;;;5049734;28;19924;-81
2022/04/05 00:39:40;;;;;;;;;;;5.40;99.80;;;;;;5033874;28;19921;-81
2022/04/05 00:42:06;;;;;;;;;;;5.40;99.90;;;;;;5064660;28;20920;-81
2022/04/05 00:44:31;;;;;;;;;;;5.30;99.90;;;;;;5023373;28;19917;-81
2022/04/05 00:47:00;;;;;;;;;;;5.30;99.90;;;;;;5029481;28;19940;-81
2022/04/05 00:49:32;;;;;;;;;;;5.30;99.90;;;;;;5047053;28;19921;-81
2022/04/05 00:51:58;;;;;;;;;;;5.30;99.90;;;;;;5032751;28;19921;-81
2022/04/05 00:54:25;;;;;;;;;;;5.30;99.90;;;;;;5046826;28;19996;-81
2022/04/05 00:56:52;;;;;;;;;;;5.20;99.90;;;;;;5030728;28;19978;-81
2022/04/05 00:59:18;;;;;;;;;;;5.20;99.90;;;;;;5054611;28;19913;-81
2022/04/05 01:01:44;;;;;;;;;;;5.10;99.90;;;;;;5025914;28;19917;-81
2022/04/05 01:04:11;;;;;;;;;;;5.10;99.90;;;;;;5052955;28;19928;-81
2022/04/05 01:06:40;;;;;;;;;;;5.10;99.90;;;;;;5027392;28;19932;-81
2022/04/05 01:09:09;;;;;;;;;;;5.00;99.90;;;;;;5053311;28;20012;-81
2022/04/05 01:11:35;;;;;;;;;;;5.00;99.90;;;;;;5029243;28;19928;-81
2022/04/05 01:14:00;;;;;;;;;;;5.00;99.90;;;;;;5038050;28;19913;-81
2022/04/05 01:16:26;;;;;;;;;;;4.90;99.90;;;;;;5047605;28;20052;-81
2022/04/05 01:18:52;;;;;;;;;;;4.90;99.90;;;;;;5041760;28;20368;-81
2022/04/05 01:21:18;;;;;;;;;;;4.90;99.90;;;;;;5043182;28;19920;-81
2022/04/05 01:24:04;;;;;;;;;;;4.90;99.90;;;;;;5046190;28;19937;-81
2022/04/05 01:26:36;;;;;;;;;;;4.90;99.90;;;;;;5071880;22;19929;-83
2022/04/05 01:29:02;;;;;;;;;;;4.90;99.90;;;;;;5040482;28;19956;-83
2022/04/05 01:31:27;;;;;;;;;;;4.80;99.90;;;;;;5022146;28;19979;-83
2022/04/05 01:33:53;;;;;;;;;;;4.80;99.90;;;;;;5033811;28;19986;-84
2022/04/05 01:36:25;;;;;;;;;;;4.80;99.90;;;;;;5025877;28;19917;-83
2022/04/05 01:38:51;;;;;;;;;;;4.80;99.90;;;;;;5042625;28;19924;-83
2022/04/05 01:41:16;;;;;;;;;;;4.80;99.90;;;;;;5036853;28;19917;-84
2022/04/05 01:43:42;;;;;;;;;;;4.80;99.90;;;;;;5032023;28;19917;-84
2022/04/05 01:46:07;;;;;;;;;;;4.80;99.90;;;;;;5038056;28;19924;-84
2022/04/05 01:48:33;;;;;;;;;;;4.80;99.90;;;;;;5027672;28;19925;-83
2022/04/05 01:50:58;;;;;;;;;;;4.80;99.90;;;;;;5056710;28;19913;-84
2022/04/05 01:53:24;;;;;;;;;;;4.80;99.90;;;;;;5033616;28;19932;-83
2022/04/05 01:55:49;;;;;;;;;;;4.80;99.90;;;;;;5029105;28;19917;-84
2022/04/05 01:58:15;;;;;;;;;;;4.80;99.90;;;;;;5041927;28;19956;-84
2022/04/05 02:00:41;;;;;;;;;;;4.80;99.90;;;;;;5028079;28;19917;-85
2022/04/05 02:03:06;;;;;;;;;;;4.70;99.90;;;;;;5055773;28;19913;-84
2022/04/05 02:05:32;;;;;;;;;;;4.70;99.90;;;;;;5044642;28;19921;-84
2022/04/05 02:07:58;;;;;;;;;;;4.80;99.90;;;;;;5051965;28;19912;-84
2022/04/05 02:10:23;;;;;;;;;;;4.70;99.90;;;;;;5038489;28;20249;-84
2022/04/05 02:12:49;;;;;;;;;;;4.70;99.90;;;;;;5050076;28;19948;-85
2022/04/05 02:15:14;;;;;;;;;;;4.70;99.90;;;;;;5052426;28;19928;-84
2022/04/05 02:17:40;;;;;;;;;;;4.70;99.90;;;;;;5037634;28;19997;-84
2022/04/05 02:20:06;;;;;;;;;;;4.70;99.90;;;;;;5038624;28;19956;-84
2022/04/05 02:22:31;;;;;;;;;;;4.70;99.90;;;;;;5046303;28;19913;-82
2022/04/05 02:24:57;;;;;;;;;;;4.70;99.90;;;;;;5046575;28;19924;-82
2022/04/05 02:27:22;;;;;;;;;;;4.70;99.90;;;;;;5047956;28;19988;-82
2022/04/05 02:29:48;;;;;;;;;;;4.70;99.90;;;;;;5032481;28;19917;-82
2022/04/05 02:32:13;;;;;;;;;;;4.70;99.90;;;;;;5028739;28;19928;-83
2022/04/05 02:34:39;;;;;;;;;;;4.70;99.90;;;;;;5027426;28;19970;-83
2022/04/05 02:37:05;;;;;;;;;;;4.70;99.90;;;;;;5023861;28;19921;-82
2022/04/05 02:39:30;;;;;;;;;;;4.70;99.90;;;;;;5047079;28;20363;-83
2022/04/05 02:41:56;;;;;;;;;;;4.70;99.90;;;;;;5022230;28;20680;-83
2022/04/05 02:44:21;;;;;;;;;;;4.70;99.90;;;;;;5043036;28;20372;-83
2022/04/05 02:46:47;;;;;;;;;;;4.70;99.90;;;;;;5021807;28;19924;-83
2022/04/05 02:49:13;;;;;;;;;;;4.70;99.90;;;;;;5038637;28;19921;-83
2022/04/05 02:51:38;;;;;;;;;;;4.70;99.90;;;;;;5029299;28;19921;-83
2022/04/05 02:54:04;;;;;;;;;;;4.70;99.90;;;;;;5038450;28;19917;-83
2022/04/05 02:56:29;;;;;;;;;;;4.70;99.90;;;;;;5021655;28;19924;-83
2022/04/05 02:58:55;;;;;;;;;;;4.70;99.90;;;;;;5024510;28;19944;-82
2022/04/05 03:01:21;;;;;;;;;;;4.70;99.90;;;;;;5022324;28;19995;-83
2022/04/05 03:03:47;;;;;;;;;;;4.70;99.90;;;;;;5036892;28;20390;-83
2022/04/05 03:06:14;;;;;;;;;;;4.70;99.90;;;;;;5044408;28;19912;-82
2022/04/05 03:08:40;;;;;;;;;;;4.70;99.90;;;;;;5033676;28;20439;-82
2022/04/05 03:11:06;;;;;;;;;;;4.70;99.90;;;;;;5048239;28;19913;-82
2022/04/05 03:13:32;;;;;;;;;;;4.70;99.90;;;;;;5047347;28;19913;-83
2022/04/05 03:15:57;;;;;;;;;;;4.70;99.90;;;;;;5039810;28;19913;-83
2022/04/05 03:18:24;;;;;;;;;;;4.70;99.90;;;;;;5021083;28;19921;-83
2022/04/05 03:20:50;;;;;;;;;;;4.70;99.90;;;;;;5040600;28;19944;-83
2022/04/05 03:23:15;;;;;;;;;;;4.70;99.90;;;;;;5024044;28;20379;-82
2022/04/05 03:25:41;;;;;;;;;;;4.70;99.90;;;;;;5030011;28;19920;-83
2022/04/05 03:28:07;;;;;;;;;;;4.70;99.90;;;;;;5040933;28;20337;-82
2022/04/05 03:30:32;;;;;;;;;;;4.70;99.90;;;;;;5024488;28;19969;-83
2022/04/05 03:32:58;;;;;;;;;;;4.70;99.90;;;;;;5035193;28;19971;-83
2022/04/05 03:35:24;;;;;;;;;;;4.70;99.90;;;;;;5040208;28;19923;-83
2022/04/05 03:37:49;;;;;;;;;;;4.80;99.90;;;;;;5041154;28;20298;-82
2022/04/05 03:40:15;;;;;;;;;;;4.70;99.90;;;;;;5024100;28;19959;-82
2022/04/05 03:42:41;;;;;;;;;;;4.70;99.90;;;;;;5038171;28;19935;-83
2022/04/05 03:45:07;;;;;;;;;;;4.80;99.90;;;;;;5046217;28;19917;-83
2022/04/05 03:47:32;;;;;;;;;;;4.80;99.90;;;;;;5023096;28;20380;-83
2022/04/05 03:49:59;;;;;;;;;;;4.80;99.90;;;;;;5020464;28;19914;-82
2022/04/05 03:52:24;;;;;;;;;;;4.80;99.90;;;;;;5029768;28;19913;-82
2022/04/05 03:54:50;;;;;;;;;;;4.80;99.90;;;;;;5028194;28;19974;-82
2022/04/05 03:57:15;;;;;;;;;;;4.80;99.90;;;;;;5034473;28;20066;-84
2022/04/05 03:59:41;;;;;;;;;;;4.80;99.90;;;;;;5023451;28;19924;-84
2022/04/05 04:02:07;;;;;;;;;;;4.80;99.90;;;;;;5037358;28;20008;-84
2022/04/05 04:04:32;;;;;;;;;;;4.80;99.90;;;;;;5020408;28;19917;-84
2022/04/05 04:06:58;;;;;;;;;;;4.80;99.90;;;;;;5021373;28;19944;-84
2022/04/05 04:09:23;;;;;;;;;;;4.80;99.90;;;;;;5019207;28;19917;-84
2022/04/05 04:11:49;;;;;;;;;;;4.90;99.90;;;;;;5027828;28;19921;-84
2022/04/05 04:14:15;;;;;;;;;;;4.90;99.90;;;;;;5041932;28;20298;-84
2022/04/05 04:16:41;;;;;;;;;;;4.80;99.90;;;;;;5036785;28;19996;-84
2022/04/05 04:19:07;;;;;;;;;;;4.90;99.90;;;;;;5028489;28;19920;-85
2022/04/05 04:21:32;;;;;;;;;;;4.90;99.90;;;;;;5038879;28;19966;-85
2022/04/05 04:23:58;;;;;;;;;;;4.90;99.90;;;;;;5031699;28;20007;-84
2022/04/05 04:26:23;;;;;;;;;;;4.80;99.90;;;;;;5035738;28;19996;-84
2022/04/05 04:28:50;;;;;;;;;;;4.90;99.90;;;;;;5042015;28;19924;-83
2022/04/05 04:31:16;;;;;;;;;;;4.80;99.90;;;;;;5017518;28;19921;-85
2022/04/05 04:33:41;;;;;;;;;;;4.80;99.90;;;;;;5026303;28;19970;-84
2022/04/05 04:36:07;;;;;;;;;;;4.80;99.90;;;;;;5031300;28;19925;-84
2022/04/05 04:38:32;;;;;;;;;;;4.80;99.90;;;;;;5027309;28;19982;-84
2022/04/05 04:40:58;;;;;;;;;;;4.80;99.90;;;;;;5037759;28;19963;-84
2022/04/05 04:43:24;;;;;;;;;;;4.80;99.90;;;;;;5040299;28;19919;-84
2022/04/05 04:45:50;;;;;;;;;;;4.80;99.90;;;;;;5022698;28;19964;-84
2022/04/05 04:48:15;;;;;;;;;;;4.80;99.90;;;;;;5042462;28;19936;-84
2022/04/05 04:50:41;;;;;;;;;;;4.80;99.90;;;;;;5066878;28;20020;-84
2022/04/05 04:53:06;;;;;;;;;;;4.80;99.90;;;;;;5033821;28;19924;-84
2022/04/05 04:55:32;;;;;;;;;;;4.80;99.90;;;;;;5057366;28;19991;-84
2022/04/05 04:57:58;;;;;;;;;;;4.80;99.90;;;;;;5031130;28;19933;-85
2022/04/05 05:00:24;;;;;;;;;;;4.80;99.90;;;;;;5045918;28;19976;-85
2022/04/05 05:02:51;;;;;;;;;;;4.80;99.90;;;;;;5045815;28;20282;-85
2022/04/05 05:05:17;;;;;;;;;;;4.80;99.90;;;;;;5044361;28;20440;-85
2022/04/05 05:07:44;;;;;;;;;;;4.80;99.90;;;;;;5047706;28;20392;-85
2022/04/05 05:10:11;;;;;;;;;;;4.80;99.90;;;;;;5020715;28;19917;-85
2022/04/05 05:12:38;;;;;;;;;;;4.80;99.90;;;;;;5046084;28;19916;-85
2022/04/05 05:15:04;;;;;;;;;;;4.80;99.90;;;;;;5026348;28;20483;-85
2022/04/05 05:17:29;;;;;;;;;;;4.80;99.90;;;;;;5027598;28;19921;-84
2022/04/05 05:19:55;;;;;;;;;;;4.80;99.90;;;;;;5030713;28;19923;-85
2022/04/05 05:22:21;;;;;;;;;;;4.80;99.90;;;;;;5041829;28;19958;-85
2022/04/05 05:24:47;;;;;;;;;;;4.80;99.90;;;;;;5036071;28;20380;-85
2022/04/05 05:27:15;;;;;;;;;;;4.80;99.90;;;;;;5043188;28;20224;-85
2022/04/05 05:29:40;;;;;;;;;;;4.90;99.90;;;;;;5032256;28;19916;-84
2022/04/05 05:32:06;;;;;;;;;;;4.90;99.90;;;;;;5031373;28;19974;-85
2022/04/05 05:34:31;;;;;;;;;;;4.90;99.90;;;;;;5036677;28;19917;-84
2022/04/05 05:36:57;;;;;;;;;;;4.90;99.90;;;;;;5045038;28;19921;-85
2022/04/05 05:39:23;;;;;;;;;;;4.90;99.90;;;;;;5028873;28;20387;-85
2022/04/05 05:41:48;;;;;;;;;;;4.90;99.90;;;;;;5050510;28;20266;-84
2022/04/05 05:44:14;;;;;;;;;;;4.90;99.90;;;;;;5039344;28;19980;-86
2022/04/05 05:46:39;;;;;;;;;;;4.90;99.90;;;;;;5032992;28;19948;-85
2022/04/05 05:49:05;;;;;;;;;;;4.90;99.90;;;;;;5021864;28;19921;-84
2022/04/05 05:51:30;;;;;;;;;;;4.90;99.90;;;;;;5028877;28;19928;-85
2022/04/05 05:53:56;;;;;;;;;;;4.90;99.90;;;;;;5022427;28;19917;-85
2022/04/05 05:56:21;;;;;;;;;;;4.90;99.90;;;;;;5032653;28;19916;-85
2022/04/05 05:58:50;;;;;;;;;;;4.90;99.90;;;;;;5040014;28;19944;-85
2022/04/05 06:01:16;;;;;;;;;;;4.90;99.90;;;;;;5024996;28;20295;-85
2022/04/05 06:03:42;;;;;;;;;;;4.90;99.90;;;;;;5023712;28;19951;-84
2022/04/05 06:06:07;;;;;;;;;;;4.90;99.90;;;;;;5028953;28;19918;-86
2022/04/05 06:08:33;;;;;;;;;;;4.90;99.90;;;;;;5021614;28;19917;-85
2022/04/05 06:10:58;;;;;;;;;;;4.90;99.90;;;;;;5040363;28;20332;-84
2022/04/05 06:13:24;;;;;;;;;;;4.90;99.90;;;;;;5023668;28;20384;-85
2022/04/05 06:15:50;;;;;;;;;;;4.90;99.90;;;;;;5039132;28;19909;-85
2022/04/05 06:18:16;;;;;;;;;;;5.00;99.90;;;;;;5039987;28;19939;-85
2022/04/05 06:20:41;;;;;;;;;;;4.90;99.90;;;;;;5040322;28;20020;-85
2022/04/05 06:23:07;;;;;;;;;;;4.90;99.90;;;;;;5023525;28;19953;-85
2022/04/05 06:25:33;;;;;;;;;;;5.00;99.90;;;;;;5039895;28;19919;-85
2022/04/05 06:28:03;;;;;;;;;;;5.00;99.90;;;;;;5038896;28;19917;-86
2022/04/05 06:30:29;;;;;;;;;;;5.00;99.90;;;;;;5039497;28;19960;-85
2022/04/05 06:33:11;;;;;;;;;;;5.00;99.90;;;;;;5023259;28;19913;-85
2022/04/05 06:35:41;;;;;;;;;;;5.00;99.90;;;;;;5040123;28;19909;-85
2022/04/05 06:38:06;;;;;;;;;;;4.90;99.90;;;;;;5023667;28;20395;-85
2022/04/05 06:40:32;;;;;;;;;;;5.00;99.90;;;;;;5042100;28;19931;-85
2022/04/05 06:42:57;;;;;;;;;;;4.90;99.90;;;;;;5025148;28;19967;-85
2022/04/05 06:45:24;;;;;;;;;;;5.00;99.90;;;;;;5041772;28;19913;-85
2022/04/05 06:47:50;;;;;;;;;;;5.00;99.90;;;;;;5026155;28;19913;-85
2022/04/05 06:50:24;;;;;;;;;;;5.00;99.90;;;;;;5026675;28;19920;-84
2022/04/05 06:52:50;;;;;;;;;;;5.00;99.90;;;;;;5044835;28;19932;-86
2022/04/05 06:55:15;;;;;;;;;;;5.00;99.90;;;;;;5045924;28;19917;-85
2022/04/05 06:57:42;;;;;;;;;;;5.10;99.90;;;;;;5026610;28;19921;-85
2022/04/05 07:00:08;;;;;;;;;;;5.10;99.90;;;;;;5043369;28;19910;-86
2022/04/05 07:02:34;;;;;;;;;;;5.10;99.90;;;;;;5043492;28;19932;-85
2022/04/05 07:04:59;;;;;;;;;;;5.10;99.90;;;;;;5028040;28;19917;-85
2022/04/05 07:07:25;;;;;;;;;;;5.10;99.90;;;;;;5052671;28;19912;-85
2022/04/05 07:09:50;;;;;;;;;;;5.20;99.90;;;;;;5039176;28;19942;-85
2022/04/05 07:12:16;;;;;;;;;;;5.20;99.90;;;;;;5043251;28;20015;-86
2022/04/05 07:14:42;;;;;;;;;;;5.20;99.90;;;;;;5034359;28;19960;-86
2022/04/05 07:17:07;;;;;;;;;;;5.30;99.90;;;;;;5040356;28;19924;-86
2022/04/05 07:19:33;;;;;;;;;;;5.30;99.90;;;;;;5034881;28;19925;-87
2022/04/05 07:21:59;;;;;;;;;;;5.30;99.90;;;;;;5036112;28;19921;-86
2022/04/05 07:24:26;;;;;;;;;;;5.30;99.90;;;;;;5048010;28;19925;-86
2022/04/05 07:26:52;;;;;;;;;;;5.30;99.90;;;;;;5091361;22;19968;-84
2022/04/05 07:29:17;;;;;;;;;;;5.40;99.90;;;;;;5053900;28;19971;-83
2022/04/05 07:31:43;;;;;;;;;;;5.30;99.90;;;;;;5043308;28;19916;-84
2022/04/05 07:34:08;;;;;;;;;;;5.30;99.90;;;;;;5032058;28;20269;-84
2022/04/05 07:36:34;;;;;;;;;;;5.30;99.90;;;;;;5054114;28;19923;-84
2022/04/05 07:38:59;;;;;;;;;;;5.30;99.90;;;;;;5044346;28;19947;-84
2022/04/05 07:41:25;;;;;;;;;;;5.30;99.90;;;;;;5031497;28;19920;-84
2022/04/05 07:43:51;;;;;;;;;;;5.30;99.90;;;;;;5043236;28;19917;-84
2022/04/05 07:46:16;;;;;;;;;;;5.30;99.90;;;;;;5048156;28;19924;-83
2022/04/05 07:48:42;;;;;;;;;;;5.30;99.90;;;;;;5053651;28;19913;-83
2022/04/05 07:51:07;;;;;;;;;;;5.40;99.90;;;;;;5041043;28;19933;-84
2022/04/05 07:53:33;;;;;;;;;;;5.40;99.90;;;;;;5038266;28;19913;-84
2022/04/05 07:55:58;;;;;;;;;;;5.40;99.90;;;;;;5034366;28;19925;-84
2022/04/05 07:58:25;;;;;;;;;;;5.50;99.90;;;;;;5040361;28;19921;-83
2022/04/05 08:00:51;;;;;;;;;;;5.50;99.90;;;;;;5032610;28;20000;-84
2022/04/05 08:03:17;;;;;;;;;;;5.60;99.90;;;;;;5040835;28;19957;-84
2022/04/05 08:05:43;;;;;;;;;;;5.50;99.90;;;;;;5033202;28;20403;-84
2022/04/05 08:08:09;;;;;;;;;;;5.60;99.90;;;;;;5032793;28;20007;-83
2022/04/05 08:10:34;;;;;;;;;;;5.60;99.90;;;;;;5031186;28;20011;-83
2022/04/05 08:13:00;;;;;;;;;;;5.60;99.90;;;;;;5012234;28;19972;-83
2022/04/05 08:15:26;;;;;;;;;;;5.60;99.90;;;;;;5039219;28;19924;-83
2022/04/05 08:17:52;;;;;;;;;;;5.60;99.90;;;;;;5043166;28;19921;-84
2022/04/05 08:20:18;;;;;;;;;;;5.60;99.90;;;;;;5043675;28;19919;-83
2022/04/05 08:22:43;;;;;;;;;;;5.60;99.90;;;;;;5035181;28;19920;-84
2022/04/05 08:25:10;;;;;;;;;;;5.60;99.90;;;;;;5031623;28;19921;-84
2022/04/05 08:27:36;;;;;;;;;;;5.70;99.90;;;;;;5016366;28;20358;-83
2022/04/05 08:30:03;;;;;;;;;;;5.70;99.90;;;;;;5044458;28;19917;-83
2022/04/05 08:32:29;;;;;;;;;;;5.70;99.90;;;;;;5043756;28;19916;-83
2022/04/05 08:34:54;;;;;;;;;;;5.80;99.90;;;;;;5050340;28;19919;-84
2022/04/05 08:37:22;;;;;;;;;;;5.90;99.90;;;;;;5042825;28;19921;-83
2022/04/05 08:39:48;;;;;;;;;;;5.90;99.90;;;;;;5041700;28;20020;-84
2022/04/05 08:42:14;;;;;;;;;;;5.90;99.90;;;;;;5044238;28;19968;-83
2022/04/05 08:44:42;;;;;;;;;;;6.00;99.90;;;;;;5046920;28;20028;-84
2022/04/05 08:47:10;;;;;;;;;;;6.10;99.90;;;;;;5035551;28;19914;-84
2022/04/05 08:49:37;;;;;;;;;;;6.10;99.90;;;;;;5026576;28;20385;-84
2022/04/05 08:52:02;;;;;;;;;;;6.20;99.90;;;;;;5042231;28;19944;-84
2022/04/05 08:54:28;;;;;;;;;;;6.20;99.90;;;;;;5044956;28;19960;-84
2022/04/05 08:56:53;;;;;;;;;;;6.20;99.90;;;;;;5034722;28;20011;-84
2022/04/05 08:59:19;;;;;;;;;;;6.30;99.90;;;;;;5039351;28;19974;-84
2022/04/05 09:01:44;;;;;;;;;;;6.30;99.90;;;;;;5034794;28;20007;-84
2022/04/05 09:04:10;;;;;;;;;;;6.30;99.90;;;;;;5050814;28;19917;-84
2022/04/05 09:06:36;;;;;;;;;;;6.30;99.90;;;;;;5047471;28;19928;-84
2022/04/05 09:09:08;;;;;;;;;;;6.30;99.90;;;;;;5054263;28;19920;-83
2022/04/05 09:11:34;;;;;;;;;;;6.30;99.90;;;;;;5046288;28;20374;-83
2022/04/05 09:14:01;;;;;;;;;;;6.40;99.90;;;;;;5044744;28;19909;-83
2022/04/05 09:16:33;;;;;;;;;;;6.40;99.90;;;;;;5044820;28;19936;-83
2022/04/05 09:18:59;;;;;;;;;;;6.50;99.90;;;;;;5032260;28;19921;-84
2022/04/05 09:21:25;;;;;;;;;;;6.50;99.90;;;;;;5054775;28;20389;-84
2022/04/05 09:23:52;;;;;;;;;;;6.50;99.90;;;;;;5029156;28;19933;-84
2022/04/05 09:26:18;;;;;;;;;;;6.50;99.90;;;;;;5041822;28;20027;-84
2022/04/05 09:28:49;;;;;;;;;;;6.50;99.90;;;;;;5047161;28;20400;-84
2022/04/05 09:31:19;;;;;;;;;;;6.50;99.90;;;;;;5042746;28;19913;-84
2022/04/05 09:34:02;;;;;;;;;;;6.40;99.90;;;;;;5028922;28;19918;-84
2022/04/05 09:36:36;;;;;;;;;;;6.40;99.90;;;;;;5040016;28;19920;-84
2022/04/05 09:39:10;;;;;;;;;;;6.50;99.90;;;;;;5045209;28;19948;-84
2022/04/05 09:41:36;;;;;;;;;;;6.40;99.90;;;;;;5055680;28;19974;-84
2022/04/05 09:44:01;;;;;;;;;;;6.50;99.90;;;;;;5049037;28;19917;-84
2022/04/05 09:46:28;;;;;;;;;;;6.50;99.90;;;;;;5049127;28;19917;-84
2022/04/05 09:49:03;;;;;;;;;;;6.50;99.90;;;;;;5043151;28;20300;-84
2022/04/05 09:51:33;;;;;;;;;;;6.50;99.90;;;;;;5046242;28;19913;-83
2022/04/05 09:53:59;;;;;;;;;;;6.50;99.90;;;;;;5039095;28;20335;-83
2022/04/05 09:56:34;;;;;;;;;;;6.50;99.90;;;;;;5039843;28;19929;-83
2022/04/05 09:59:06;;;;;;;;;;;6.50;99.90;;;;;;5046021;28;19925;-83
2022/04/05 10:01:36;;;;;;;;;;;6.50;99.90;;;;;;5034191;28;19928;-83
2022/04/05 10:04:12;;;;;;;;;;;6.60;99.90;;;;;;5043721;28;19960;-83
2022/04/05 10:06:41;;;;;;;;;;;6.60;99.90;;;;;;5043322;28;20267;-83
2022/04/05 10:09:07;;;;;;;;;;;6.60;99.90;;;;;;5034459;28;20401;-83
2022/04/05 10:11:33;;;;;;;;;;;6.60;99.90;;;;;;5046243;28;19925;-83
2022/04/05 10:13:59;;;;;;;;;;;6.60;99.90;;;;;;5038690;28;19913;-83
2022/04/05 10:16:26;;;;;;;;;;;6.70;99.90;;;;;;5041054;28;19920;-83
2022/04/05 10:18:54;;;;;;;;;;;6.70;99.90;;;;;;5034557;28;19924;-83
2022/04/05 10:21:20;;;;;;;;;;;6.80;99.90;;;;;;5034683;28;20512;-83
2022/04/05 10:23:46;;;;;;;;;;;6.80;99.90;;;;;;5047889;28;19920;-83
2022/04/05 10:26:16;;;;;;;;;;;6.90;99.90;;;;;;5036893;28;20396;-83
2022/04/05 10:28:43;;;;;;;;;;;6.90;99.90;;;;;;5038941;28;19917;-83
2022/04/05 10:31:13;;;;;;;;;;;6.90;99.90;;;;;;5038289;28;19921;-83
2022/04/05 10:34:00;;;;;;;;;;;7.00;99.90;;;;;;5046402;28;20292;-83
2022/04/05 10:36:27;;;;;;;;;;;7.00;99.90;;;;;;5039273;28;20328;-83
2022/04/05 10:39:12;;;;;;;;;;;7.10;99.90;;;;;;5007261;28;19921;-83
2022/04/05 10:41:37;;;;;;;;;;;7.10;99.90;;;;;;4994274;28;19917;-83
2022/04/05 10:44:19;;;;;;;;;;;7.20;99.90;;;;;;5041450;28;20031;-84
2022/04/05 10:46:58;;;;;;;;;;;7.20;99.90;;;;;;5034576;28;19917;-84
2022/04/05 10:49:34;;;;;;;;;;;7.30;99.90;;;;;;5016417;28;19918;-83
2022/04/05 10:52:07;;;;;;;;;;;7.30;99.90;;;;;;5029229;28;20373;-84
2022/04/05 10:54:43;;;;;;;;;;;7.40;99.90;;;;;;5045599;28;19960;-83
2022/04/05 10:57:18;;;;;;;;;;;7.40;99.90;;;;;;5041755;28;20007;-83
2022/04/05 10:59:48;;;;;;;;;;;7.40;99.90;;;;;;5036963;28;19921;-83
2022/04/05 11:02:35;;;;;;;;;;;7.30;99.90;;;;;;5037972;28;19913;-83
2022/04/05 11:05:02;;;;;;;;;;;7.30;99.90;;;;;;5033780;28;20316;-83
2022/04/05 11:07:27;;;;;;;;;;;7.30;99.90;;;;;;5047333;28;20004;-83
2022/04/05 11:09:54;;;;;;;;;;;7.40;99.90;;;;;;5039301;28;20034;-84
2022/04/05 11:12:21;;;;;;;;;;;7.40;99.90;;;;;;5048591;28;19976;-84
2022/04/05 11:14:50;;;;;;;;;;;7.40;99.90;;;;;;5044850;28;19924;-84
2022/04/05 11:17:16;;;;;;;;;;;7.40;99.90;;;;;;5033669;28;20281;-84
2022/04/05 11:19:45;;;;;;;;;;;7.40;99.90;;;;;;5021857;28;20285;-83
2022/04/05 11:22:19;;;;;;;;;;;7.30;99.90;;;;;;5050148;28;19963;-84
2022/04/05 11:24:54;;;;;;;;;;;7.30;99.90;;;;;;5037229;28;19992;-83
2022/04/05 11:27:45;;;;;;;;;;;7.30;99.90;;;;;;5042019;28;20019;-84
2022/04/05 11:30:23;;;;;;;;;;;7.30;99.90;;;;;;5049493;28;19917;-85
2022/04/05 11:33:09;;;;;;;;;;;7.30;99.90;;;;;;5042940;28;19942;-84
2022/04/05 11:35:36;;;;;;;;;;;7.30;99.90;;;;;;5034124;28;19939;-84
2022/04/05 11:38:02;;;;;;;;;;;7.30;99.90;;;;;;5049281;28;19920;-84
2022/04/05 11:40:29;;;;;;;;;;;7.30;99.90;;;;;;5025886;28;20408;-83
2022/04/05 11:42:55;;;;;;;;;;;7.30;99.90;;;;;;5039011;28;19920;-84
2022/04/05 11:45:21;;;;;;;;;;;7.30;99.90;;;;;;5028133;28;19921;-83
2022/04/05 11:47:53;;;;;;;;;;;7.30;99.90;;;;;;5042695;28;20301;-84
2022/04/05 11:50:19;;;;;;;;;;;7.30;99.90;;;;;;5048992;28;19944;-84
2022/04/05 11:52:45;;;;;;;;;;;7.30;99.90;;;;;;5037634;28;19913;-84
2022/04/05 11:58:04;;;;;;;;;;;7.30;99.90;;;;;;5032182;28;19928;-84
2022/04/05 12:00:30;;;;;;;;;;;7.30;99.90;;;;;;5044440;28;19913;-84
2022/04/05 12:03:07;;;;;;;;;;;7.30;99.90;;;;;;5045618;28;21104;-84
2022/04/05 12:05:45;;;;;;;;;;;7.20;99.90;;;;;;5033689;28;19925;-84
2022/04/05 12:08:12;;;;;;;;;;;7.20;99.90;;;;;;5044682;28;19963;-84
2022/04/05 12:10:38;;;;;;;;;;;7.20;99.90;;;;;;5032113;28;19929;-84
2022/04/05 12:13:03;;;;;;;;;;;7.20;99.90;;;;;;5051069;28;19951;-84
2022/04/05 12:15:29;;;;;;;;;;;7.20;99.90;;;;;;5020320;28;20369;-84
2022/04/05 12:18:13;;;;;;;;;;;7.10;99.90;;;;;;5034597;28;19921;-84
2022/04/05 12:20:38;;;;;;;;;;;7.20;99.90;;;;;;5044774;28;19917;-84
2022/04/05 12:23:17;;;;;;;;;;;7.20;99.90;;;;;;5056922;28;19924;-84
2022/04/05 12:26:00;;;;;;;;;;;7.20;99.90;;;;;;5057985;28;19920;-84
2022/04/05 12:28:25;;;;;;;;;;;7.20;99.90;;;;;;5048242;28;19921;-84
2022/04/05 12:30:51;;;;;;;;;;;7.20;99.90;;;;;;5048964;28;20282;-84
2022/04/05 12:33:25;;;;;;;;;;;7.20;99.90;;;;;;5048583;28;19923;-84
2022/04/05 12:35:51;;;;;;;;;;;7.10;99.90;;;;;;5040545;28;20133;-84
2022/04/05 12:38:16;;;;;;;;;;;7.20;99.90;;;;;;5051177;28;19920;-84
2022/04/05 12:40:42;;;;;;;;;;;7.10;99.90;;;;;;5039901;28;19925;-84
2022/04/05 12:43:15;;;;;;;;;;;7.10;99.90;;;;;;5052511;28;19917;-84
2022/04/05 12:45:40;;;;;;;;;;;7.10;99.90;;;;;;5053341;28;19920;-84
2022/04/05 12:48:16;;;;;;;;;;;7.10;99.90;;;;;;5051972;28;19940;-84
2022/04/05 12:50:42;;;;;;;;;;;7.10;99.90;;;;;;5034470;28;19922;-84
2022/04/05 12:53:08;;;;;;;;;;;7.10;99.90;;;;;;5051403;28;19909;-84
2022/04/05 12:55:34;;;;;;;;;;;7.10;99.90;;;;;;5053141;28;19921;-84
2022/04/05 12:58:00;;;;;;;;;;;7.10;99.90;;;;;;5047581;28;19929;-84
2022/04/05 13:00:32;;;;;;;;;;;7.10;99.90;;;;;;5050221;28;19939;-84
2022/04/05 13:03:09;;;;;;;;;;;7.20;99.90;;;;;;5060387;28;19939;-84
2022/04/05 13:08:28;;;;;;;;;;;7.30;99.90;;;;;;5053674;28;20278;-84
2022/04/05 13:10:54;;;;;;;;;;;7.30;99.90;;;;;;5038443;28;19914;-84
2022/04/05 13:13:21;;;;;;;;;;;7.30;99.90;;;;;;5045891;28;19913;-84
2022/04/05 13:15:51;;;;;;;;;;;7.30;99.90;;;;;;5042142;28;20026;-84
2022/04/05 13:18:17;;;;;;;;;;;7.40;99.90;;;;;;5026464;28;19922;-84
2022/04/05 13:20:55;;;;;;;;;;;7.40;99.90;;;;;;5044369;28;20340;-84
2022/04/05 13:23:21;;;;;;;;;;;7.40;99.90;;;;;;5046842;28;19936;-84
2022/04/05 13:25:48;;;;;;;;;;;7.40;99.90;;;;;;5044235;28;19999;-84
2022/04/05 13:28:14;;;;;;;;;;;7.40;99.90;;;;;;5057912;22;20344;-79
2022/04/05 13:30:43;;;;;;;;;;;7.40;99.90;;;;;;5028677;28;19948;-80
2022/04/05 13:33:09;;;;;;;;;;;7.40;99.90;;;;;;5022426;28;20394;-80
2022/04/05 13:35:35;;;;;;;;;;;7.50;99.90;;;;;;5050209;28;19916;-81
2022/04/05 13:38:00;;;;;;;;;;;7.50;99.90;;;;;;5038551;28;19968;-80
2022/04/05 13:40:26;;;;;;;;;;;7.60;99.90;;;;;;5033715;28;19920;-81
2022/04/05 13:42:53;;;;;;;;;;;7.60;99.90;;;;;;5025860;28;19917;-81
2022/04/05 13:45:19;;;;;;;;;;;7.70;99.90;;;;;;5035187;28;19972;-80
2022/04/05 13:47:45;;;;;;;;;;;7.70;99.90;;;;;;5050341;28;19912;-81
2022/04/05 13:50:11;;;;;;;;;;;7.80;99.90;;;;;;5037242;28;20149;-81
2022/04/05 13:52:37;;;;;;;;;;;7.80;99.90;;;;;;5024329;28;20280;-80
2022/04/05 13:55:04;;;;;;;;;;;7.90;99.90;;;;;;5034541;28;19924;-80
2022/04/05 13:57:29;;;;;;;;;;;7.80;99.90;;;;;;5035088;28;20395;-80
2022/04/05 13:59:55;;;;;;;;;;;7.80;99.90;;;;;;5030333;28;19917;-80
2022/04/05 14:02:20;;;;;;;;;;;7.80;99.90;;;;;;5023217;28;19918;-80
2022/04/05 14:04:46;;;;;;;;;;;7.80;99.90;;;;;;5042087;28;19923;-80
2022/04/05 14:07:14;;;;;;;;;;;7.80;99.90;;;;;;5049393;28;19939;-80
2022/04/05 14:09:39;;;;;;;;;;;7.80;99.90;;;;;;5041838;28;20268;-80
2022/04/05 14:12:07;;;;;;;;;;;7.80;99.90;;;;;;5035642;28;19925;-80
2022/04/05 14:14:32;;;;;;;;;;;7.80;99.90;;;;;;5024617;28;19917;-81
2022/04/05 14:16:58;;;;;;;;;;;7.80;99.90;;;;;;5037109;28;20295;-80
2022/04/05 14:19:25;;;;;;;;;;;7.80;99.90;;;;;;5033533;28;19975;-81
2022/04/05 14:21:52;;;;;;;;;;;7.80;99.90;;;;;;5045649;28;20003;-80
2022/04/05 14:24:18;;;;;;;;;;;7.80;99.90;;;;;;5028159;28;20375;-80
2022/04/05 14:26:44;;;;;;;;;;;7.70;99.90;;;;;;5022109;28;19939;-80
2022/04/05 14:29:09;;;;;;;;;;;7.70;99.90;;;;;;5050266;28;19917;-80
2022/04/05 14:31:36;;;;;;;;;;;7.70;99.90;;;;;;5038016;28;20287;-80
2022/04/05 14:34:02;;;;;;;;;;;7.70;99.90;;;;;;5020353;28;19927;-79
2022/04/05 14:36:28;;;;;;;;;;;7.80;99.90;;;;;;5050788;28;19991;-82